Terminal Aerodrome Forecast
Issued by NWS

Home | Current Version | Previous Version | Text Only | Print | Product List | Glossary On
Versions: 1 2 3 4 5 6 7 8 9 10 11 12 13 14 15 16 17 18 19 20 21 22 23 24 25 26
000
FTUS45 KBOU 010254 AAB
TAFBJC
TAF AMD
KBJC 010254Z 0103/0124 VRB05KT P6SM SCT040 BKN070
      TEMPO 0103/0106 -SHRA OVC040
     FM010600 VRB05KT P6SM SCT020 BKN040
      TEMPO 0106/0108 -SHRA BKN020
     FM010800 08003KT P6SM VCFG SCT015 BKN030
     FM011000 18007KT P6SM SCT015 BKN040
     FM011500 12008KT P6SM SCT050 SCT080=

USA.gov is the U.S. government's official web portal to all federal, state and local government web resources and services.